createdAt,value
2018-04-27T00:01:28.580Z,98.90
2018-04-27T00:03:56.423Z,98.80
2018-04-27T00:06:23.943Z,99.20
2018-04-27T00:08:52.450Z,99.20
2018-04-27T00:11:22.482Z,99.30
2018-04-27T00:13:50.839Z,99.30
2018-04-27T00:16:19.029Z,99.30
2018-04-27T00:18:46.792Z,99.20
2018-04-27T00:21:14.244Z,99.40
2018-04-27T00:23:41.707Z,99.30
2018-04-27T00:26:09.160Z,99.20
2018-04-27T00:28:37.368Z,99.00
2018-04-27T00:31:04.820Z,99.00
2018-04-27T00:33:33.036Z,99.00
2018-04-27T00:36:00.504Z,99.00
2018-04-27T00:38:28.040Z,99.00
2018-04-27T00:40:55.549Z,99.30
2018-04-27T00:43:23.232Z,99.70
2018-04-27T00:45:52.328Z,99.20
2018-04-27T00:48:20.937Z,99.50
2018-04-27T00:50:49.710Z,99.40
2018-04-27T00:53:18.025Z,99.50
2018-04-27T00:55:45.589Z,99.50
2018-04-27T00:58:13.048Z,99.40
2018-04-27T01:00:40.488Z,99.50
2018-04-27T01:03:08.713Z,99.50
2018-04-27T01:05:36.173Z,99.50
2018-04-27T01:08:04.402Z,99.60
2018-04-27T01:10:31.857Z,99.60
2018-04-27T01:13:00.011Z,99.70
2018-04-27T01:15:28.319Z,99.70
2018-04-27T01:17:56.094Z,99.70
2018-04-27T01:20:23.635Z,99.70
2018-04-27T01:22:52.888Z,99.90
2018-04-27T01:25:21.978Z,99.90
2018-04-27T01:27:50.684Z,99.90
2018-04-27T01:30:19.607Z,99.70
2018-04-27T01:32:48.193Z,99.90
2018-04-27T01:35:15.758Z,99.90
2018-04-27T01:37:43.253Z,99.90
2018-04-27T01:40:10.712Z,99.90
2018-04-27T01:42:38.188Z,99.90
2018-04-27T01:45:05.682Z,99.90
2018-04-27T01:47:33.139Z,99.90
2018-04-27T01:50:00.627Z,99.90
2018-04-27T01:52:28.773Z,99.90
2018-04-27T01:54:56.341Z,99.90
2018-04-27T01:57:24.648Z,99.90
2018-04-27T01:59:52.562Z,99.90
2018-04-27T02:02:21.277Z,99.90
2018-04-27T02:04:50.130Z,99.90
2018-04-27T02:07:20.381Z,99.90
2018-04-27T02:09:50.031Z,99.90
2018-04-27T02:12:19.442Z,99.90
2018-04-27T02:14:48.180Z,99.90
2018-04-27T02:17:15.827Z,99.90
2018-04-27T02:19:43.465Z,99.90
2018-04-27T02:22:10.908Z,99.90
2018-04-27T02:24:38.365Z,99.90
2018-04-27T02:27:05.812Z,99.90
2018-04-27T02:29:33.272Z,99.90
2018-04-27T02:32:00.837Z,99.90
2018-04-27T02:34:28.481Z,99.90
2018-04-27T02:36:56.894Z,99.90
2018-04-27T02:39:24.567Z,99.90
2018-04-27T02:41:52.605Z,99.90
2018-04-27T02:44:21.919Z,99.90
2018-04-27T02:46:50.511Z,99.90
2018-04-27T02:49:19.932Z,99.90
2018-04-27T02:51:48.226Z,99.90
2018-04-27T02:54:15.828Z,99.90
2018-04-27T02:56:43.469Z,99.90
2018-04-27T02:59:10.908Z,99.90
2018-04-27T03:01:39.140Z,99.90
2018-04-27T03:04:06.629Z,99.90
2018-04-27T03:06:34.100Z,99.90
2018-04-27T03:09:01.573Z,99.90
2018-04-27T03:11:29.637Z,99.90
2018-04-27T03:13:57.235Z,99.90
2018-04-27T03:16:24.952Z,99.80
2018-04-27T03:18:52.634Z,99.90
2018-04-27T03:21:22.268Z,99.90
2018-04-27T03:23:50.199Z,99.90
2018-04-27T03:26:18.438Z,99.90
2018-04-27T03:28:46.031Z,99.90
2018-04-27T03:31:13.613Z,99.90
2018-04-27T03:33:41.053Z,99.90
2018-04-27T03:36:08.509Z,99.90
2018-04-27T03:38:36.720Z,99.80
2018-04-27T03:41:04.181Z,99.80
2018-04-27T03:43:31.637Z,99.70
2018-04-27T03:46:00.172Z,99.90
2018-04-27T03:48:27.715Z,99.90
2018-04-27T03:50:56.119Z,99.80
2018-04-27T03:53:23.815Z,99.90
2018-04-27T03:55:52.791Z,99.90
2018-04-27T03:58:21.824Z,99.80
2018-04-27T04:01:01.367Z,99.90
2018-04-27T04:03:40.580Z,99.80
2018-04-27T04:06:08.788Z,99.90
2018-04-27T04:08:36.248Z,99.90
2018-04-27T04:11:03.692Z,99.90
2018-04-27T04:13:31.237Z,99.90
2018-04-27T04:15:58.775Z,99.90
2018-04-27T04:18:26.368Z,99.90
2018-04-27T04:20:53.913Z,99.90
2018-04-27T04:23:21.641Z,99.90
2018-04-27T04:25:50.682Z,99.90
2018-04-27T04:28:19.958Z,99.90
2018-04-27T04:30:47.955Z,99.90
2018-04-27T04:33:15.497Z,99.90
2018-04-27T04:35:42.962Z,99.90
2018-04-27T04:38:10.440Z,99.90
2018-04-27T04:40:37.903Z,99.90
2018-04-27T04:43:05.377Z,99.90
2018-04-27T04:45:32.840Z,99.90
2018-04-27T04:48:00.447Z,99.90
2018-04-27T04:50:28.060Z,99.90
2018-04-27T04:52:57.013Z,99.90
2018-04-27T04:55:24.695Z,99.90
2018-04-27T04:57:52.808Z,99.90
2018-04-27T05:00:22.002Z,99.90
2018-04-27T05:02:51.392Z,99.90
2018-04-27T05:05:21.313Z,99.90
2018-04-27T05:07:49.348Z,99.90
2018-04-27T05:10:17.110Z,99.90
2018-04-27T05:12:45.341Z,99.90
2018-04-27T05:15:12.893Z,99.90
2018-04-27T05:17:40.405Z,99.90
2018-04-27T06:00:39.192Z,95.90
2018-04-27T06:03:06.843Z,95.50
2018-04-27T06:05:34.308Z,94.70
2018-04-27T06:08:01.822Z,94.60
2018-04-27T06:15:24.308Z,94.30
2018-04-27T06:17:53.964Z,93.70
2018-04-27T06:20:21.513Z,93.80
2018-04-27T06:22:48.986Z,93.00
2018-04-27T06:25:16.517Z,92.70
2018-04-27T06:27:44.136Z,92.40
2018-04-27T06:30:12.373Z,92.10
2018-04-27T06:32:39.978Z,91.50
2018-04-27T06:35:08.066Z,91.40
2018-04-27T06:37:36.767Z,90.60
2018-04-27T06:40:05.865Z,89.80
2018-04-27T06:42:35.689Z,89.80
2018-04-27T06:45:04.454Z,88.40
2018-04-27T06:47:32.188Z,88.60
2018-04-27T06:49:59.748Z,88.10
2018-04-27T06:52:27.215Z,85.60
2018-04-27T06:54:54.691Z,87.40
2018-04-27T06:57:22.164Z,85.70
2018-04-27T06:59:49.631Z,86.70
2018-04-27T07:02:17.085Z,85.60
2018-04-27T07:04:45.323Z,85.20
2018-04-27T07:07:12.973Z,86.50
2018-04-27T07:09:41.555Z,84.40
2018-04-27T07:12:09.209Z,82.40
2018-04-27T07:14:37.985Z,81.70
2018-04-27T07:17:08.439Z,82.70
2018-04-27T07:19:36.636Z,82.60
2018-04-27T07:22:05.045Z,83.10
2018-04-27T07:24:32.683Z,83.50
2018-04-27T07:27:00.184Z,82.60
2018-04-27T07:29:27.637Z,81.70
2018-04-27T07:31:55.877Z,79.90
2018-04-27T07:34:23.331Z,79.80
2018-04-27T07:36:50.792Z,80.30
2018-04-27T07:39:18.257Z,81.00
2018-04-27T07:41:45.740Z,81.20
2018-04-27T07:44:13.718Z,79.70
2018-04-27T07:46:41.565Z,79.40
2018-04-27T07:49:09.744Z,77.80
2018-04-27T07:51:38.380Z,78.00
2018-04-27T07:54:06.768Z,77.50
2018-04-27T07:56:34.646Z,76.80
2018-04-27T07:59:02.535Z,77.80
2018-04-27T08:01:30.001Z,77.00
2018-04-27T08:03:58.226Z,72.40
2018-04-27T08:06:25.716Z,72.30
2018-04-27T08:08:53.231Z,73.00
2018-04-27T08:11:20.730Z,70.40
2018-04-27T08:13:48.117Z,70.00
2018-04-27T08:16:15.736Z,69.90
2018-04-27T08:18:44.198Z,70.40
2018-04-27T08:21:11.848Z,70.30
2018-04-27T08:23:40.242Z,70.30
2018-04-27T08:26:08.223Z,71.00
2018-04-27T08:28:38.256Z,69.80
2018-04-27T08:31:07.759Z,69.60
2018-04-27T08:33:35.939Z,70.00
2018-04-27T08:36:03.908Z,69.60
2018-04-27T08:38:32.413Z,69.40
2018-04-27T08:41:00.697Z,66.20
2018-04-27T08:43:28.177Z,66.10
2018-04-27T08:45:55.648Z,64.50
2018-04-27T08:48:23.096Z,61.30
2018-04-27T08:50:50.558Z,61.90
2018-04-27T08:53:18.010Z,61.70
2018-04-27T08:55:46.260Z,62.80
2018-04-27T08:58:13.986Z,62.70
2018-04-27T09:00:42.200Z,62.10
2018-04-27T09:03:11.604Z,62.10
2018-04-27T09:05:39.142Z,57.60
2018-04-27T09:08:07.955Z,59.30
2018-04-27T09:10:36.886Z,58.60
2018-04-27T09:13:06.002Z,58.70
2018-04-27T09:15:34.777Z,57.40
2018-04-27T09:18:02.578Z,57.30
2018-04-27T09:20:30.188Z,55.10
2018-04-27T09:22:57.644Z,56.60
2018-04-27T09:25:25.139Z,55.00
2018-04-27T09:27:52.605Z,55.10
2018-04-27T09:30:20.227Z,52.20
2018-04-27T09:32:47.773Z,52.40
2018-04-27T09:35:15.397Z,55.30
2018-04-27T09:37:43.203Z,54.60
2018-04-27T09:40:11.193Z,56.10
2018-04-27T09:42:39.758Z,53.50
2018-04-27T09:45:08.076Z,53.90
2018-04-27T09:47:37.057Z,47.30
2018-04-27T09:50:05.557Z,46.90
2018-04-27T09:52:34.727Z,45.70
2018-04-27T09:55:04.321Z,47.60
2018-04-27T09:57:31.867Z,47.50
2018-04-27T09:59:59.304Z,44.90
2018-04-27T10:02:27.524Z,43.20
2018-04-27T10:04:55.020Z,43.20
2018-04-27T10:07:22.495Z,46.90
2018-04-27T10:09:50.068Z,46.90
2018-04-27T10:12:17.605Z,47.20
2018-04-27T10:14:45.657Z,45.90
2018-04-27T10:17:13.186Z,45.90
2018-04-27T10:19:40.799Z,41.80
2018-04-27T10:22:08.393Z,41.90
2018-04-27T10:24:37.179Z,41.30
2018-04-27T10:27:06.451Z,41.30
2018-04-27T10:29:34.568Z,42.30
2018-04-27T10:32:02.105Z,42.10
2018-04-27T10:34:29.513Z,42.50
2018-04-27T10:36:57.038Z,43.20
2018-04-27T10:39:25.252Z,43.20
2018-04-27T10:41:52.712Z,43.20
2018-04-27T10:44:20.797Z,43.40
2018-04-27T10:46:48.295Z,43.00
2018-04-27T10:49:15.800Z,42.20
2018-04-27T10:51:43.620Z,43.30
2018-04-27T10:54:11.513Z,42.90
2018-04-27T10:56:39.090Z,43.50
2018-04-27T10:59:06.960Z,43.90
2018-04-27T11:01:35.503Z,43.40
2018-04-27T11:04:04.391Z,47.80
2018-04-27T11:06:31.865Z,44.40
2018-04-27T11:08:59.324Z,43.90
2018-04-27T11:11:26.772Z,44.00
2018-04-27T11:13:54.238Z,43.40
2018-04-27T11:16:21.688Z,45.30
2018-04-27T11:18:49.916Z,43.30
2018-04-27T11:21:17.391Z,43.10
2018-04-27T11:23:45.104Z,43.10
2018-04-27T11:26:12.733Z,42.40
2018-04-27T11:28:40.336Z,45.20
2018-04-27T11:31:08.229Z,41.60
2018-04-27T11:33:36.773Z,41.30
2018-04-27T11:36:04.642Z,40.50
2018-04-27T11:38:32.734Z,39.90
2018-04-27T11:41:00.244Z,40.70
2018-04-27T11:43:27.688Z,37.90
2018-04-27T11:45:55.180Z,37.50
2018-04-27T11:48:22.632Z,36.20
2018-04-27T11:50:50.088Z,36.10
2018-04-27T11:53:17.619Z,37.40
2018-04-27T11:55:45.325Z,36.80
2018-04-27T11:58:12.887Z,38.20
2018-04-27T12:00:40.448Z,39.50
2018-04-27T12:03:08.733Z,39.80
2018-04-27T12:05:37.868Z,39.80
2018-04-27T12:08:05.901Z,40.00
2018-04-27T12:10:35.837Z,39.70
2018-04-27T12:13:06.498Z,37.70
2018-04-27T12:15:34.152Z,37.60
2018-04-27T12:18:02.552Z,38.50
2018-04-27T12:20:30.816Z,34.10
2018-04-27T12:22:58.270Z,34.00
2018-04-27T12:25:25.764Z,35.10
2018-04-27T12:27:53.227Z,36.50
2018-04-27T12:30:20.709Z,35.30
2018-04-27T12:32:48.179Z,34.00
2018-04-27T12:35:15.686Z,32.90
2018-04-27T12:37:43.453Z,34.50
2018-04-27T12:40:10.954Z,35.00
2018-04-27T12:42:38.672Z,34.40
2018-04-27T12:45:07.782Z,32.80
2018-04-27T12:47:35.786Z,34.40
2018-04-27T12:50:03.885Z,35.30
2018-04-27T12:52:31.528Z,35.80
2018-04-27T12:54:59.013Z,35.30
2018-04-27T12:57:26.642Z,36.00
2018-04-27T12:59:54.868Z,34.50
2018-04-27T13:02:22.345Z,34.50
2018-04-27T13:04:49.788Z,35.20
2018-04-27T13:07:17.704Z,35.40
2018-04-27T13:09:45.996Z,35.60
2018-04-27T13:12:14.343Z,35.40
2018-04-27T13:14:42.216Z,35.40
2018-04-27T13:17:10.008Z,35.60
2018-04-27T13:19:39.112Z,36.50
2018-04-27T13:22:08.084Z,35.50
2018-04-27T13:24:37.426Z,34.70
2018-04-27T13:27:05.434Z,35.90
2018-04-27T13:29:34.360Z,36.90
2018-04-27T13:32:01.820Z,36.80
2018-04-27T13:34:29.381Z,37.50
2018-04-27T13:36:56.733Z,36.70
2018-04-27T13:39:24.194Z,35.30
2018-04-27T13:41:51.696Z,34.50
2018-04-27T13:44:19.269Z,34.90
2018-04-27T13:46:46.723Z,34.30
2018-04-27T13:49:14.347Z,34.80
2018-04-27T13:51:42.200Z,34.10
2018-04-27T13:54:09.762Z,33.90
2018-04-27T13:56:38.189Z,33.30
2018-04-27T13:59:08.242Z,33.80
2018-04-27T14:01:36.289Z,34.40
2018-04-27T14:04:04.541Z,32.40
2018-04-27T14:06:32.068Z,30.90
2018-04-27T14:08:59.601Z,30.30
2018-04-27T14:11:27.080Z,30.30
2018-04-27T14:13:54.564Z,30.00
2018-04-27T14:16:22.085Z,29.80
2018-04-27T14:18:49.513Z,29.90
2018-04-27T14:21:16.995Z,30.20
2018-04-27T14:23:44.540Z,29.70
2018-04-27T14:26:12.554Z,29.90
2018-04-27T14:28:40.084Z,29.30
2018-04-27T14:31:07.660Z,29.50
2018-04-27T14:33:36.257Z,29.40
2018-04-27T14:36:06.500Z,30.00
2018-04-27T14:38:34.502Z,30.00
2018-04-27T14:41:02.163Z,31.40
2018-04-27T14:43:29.513Z,31.30
2018-04-27T14:45:57.020Z,32.40
2018-04-27T14:48:24.465Z,33.00
2018-04-27T14:50:52.049Z,34.10
2018-04-27T14:53:19.515Z,35.10
2018-04-27T14:55:47.013Z,34.90
2018-04-27T14:58:15.606Z,36.70
2018-04-27T15:00:43.162Z,36.70
2018-04-27T15:03:11.127Z,37.50
2018-04-27T15:05:38.693Z,38.90
2018-04-27T15:08:06.673Z,38.60
2018-04-27T15:10:35.179Z,39.20
2018-04-27T15:13:02.714Z,39.20
2018-04-27T15:15:30.324Z,38.50
2018-04-27T15:17:57.777Z,38.60
2018-04-27T15:20:25.329Z,38.60
2018-04-27T15:22:52.794Z,39.20
2018-04-27T15:25:20.370Z,39.20
2018-04-27T15:27:47.845Z,38.50
2018-04-27T15:30:15.607Z,40.60
2018-04-27T15:32:43.164Z,40.80
2018-04-27T15:35:10.763Z,39.90
2018-04-27T15:37:38.449Z,40.10
2018-04-27T15:40:06.604Z,41.40
2018-04-27T15:42:34.925Z,41.90
2018-04-27T15:45:03.247Z,41.10
2018-04-27T15:47:31.526Z,40.90
2018-04-27T15:49:59.106Z,40.90
2018-04-27T15:52:26.568Z,41.80
2018-04-27T15:54:54.057Z,42.20
2018-04-27T15:57:23.055Z,41.30
2018-04-27T15:59:50.476Z,41.30
2018-04-27T16:02:17.988Z,42.00
2018-04-27T16:04:45.456Z,41.60
2018-04-27T16:07:13.197Z,42.30
2018-04-27T16:09:41.057Z,42.70
2018-04-27T16:12:09.360Z,43.10
2018-04-27T16:14:37.741Z,43.60
2018-04-27T16:17:05.674Z,43.10
2018-04-27T16:19:34.244Z,43.60
2018-04-27T16:22:02.533Z,43.50
2018-04-27T16:24:30.332Z,43.40
2018-04-27T16:26:57.784Z,43.00
2018-04-27T16:29:25.269Z,43.80
2018-04-27T16:31:52.740Z,44.10
2018-04-27T16:34:20.212Z,43.50
2018-04-27T16:36:47.693Z,44.60
2018-04-27T16:41:45.843Z,44.30
2018-04-27T18:25:26.135Z,55.10
2018-04-27T18:27:53.541Z,55.50
2018-04-27T18:30:21.002Z,55.90
2018-04-27T18:32:48.568Z,56.30
2018-04-27T18:35:16.028Z,56.60
2018-04-27T18:37:43.508Z,57.10
2018-04-27T18:40:11.836Z,58.10
2018-04-27T18:42:39.862Z,58.00
2018-04-27T18:45:07.512Z,57.70
2018-04-27T18:47:35.085Z,57.80
2018-04-27T18:50:02.604Z,58.30
2018-04-27T18:52:30.864Z,58.70
2018-04-27T18:54:58.422Z,58.60
2018-04-27T18:57:26.714Z,59.70
2018-04-27T18:59:54.221Z,59.70
2018-04-27T19:03:58.332Z,60.70
2018-04-27T19:06:25.832Z,61.60
2018-04-27T19:08:53.311Z,61.10
2018-04-27T19:11:20.839Z,60.10
2018-04-27T19:13:49.065Z,59.80
2018-04-27T19:16:16.741Z,59.90
2018-04-27T19:18:44.725Z,59.70
2018-04-27T19:21:19.227Z,59.50
2018-04-27T19:23:46.685Z,60.20
2018-04-27T19:26:14.962Z,60.10
2018-04-27T19:28:42.459Z,60.10
2018-04-27T19:31:09.976Z,60.40
2018-04-27T19:33:38.993Z,61.10
2018-04-27T19:36:06.574Z,61.10
2018-04-27T19:38:34.087Z,61.70
2018-04-27T19:41:01.588Z,61.80
2018-04-27T19:43:29.150Z,61.70
2018-04-27T19:45:56.616Z,61.80
2018-04-27T19:48:24.080Z,62.90
2018-04-27T19:50:52.476Z,62.90
2018-04-27T19:53:19.956Z,63.60
2018-04-27T19:55:47.632Z,63.10
2018-04-27T19:58:15.133Z,63.40
2018-04-27T20:00:42.762Z,63.40
2018-04-27T20:03:10.406Z,64.10
2018-04-27T20:05:44.916Z,64.20
2018-04-27T20:08:12.475Z,65.00
2018-04-27T20:10:40.841Z,65.30
2018-04-27T20:13:12.137Z,65.30
2018-04-27T20:15:40.763Z,65.90
2018-04-27T20:18:08.368Z,65.90
2018-04-27T20:20:35.948Z,66.90
2018-04-27T20:23:04.313Z,66.60
2018-04-27T20:25:31.764Z,66.70
2018-04-27T20:27:59.277Z,67.50
2018-04-27T20:30:26.754Z,67.90
2018-04-27T20:32:54.278Z,68.40
2018-04-27T20:35:22.514Z,69.50
2018-04-27T20:37:51.829Z,69.40
2018-04-27T20:40:19.310Z,69.90
2018-04-27T20:42:47.551Z,69.20
2018-04-27T20:45:20.928Z,69.20
2018-04-27T20:47:49.188Z,70.00
2018-04-27T20:50:16.697Z,69.90
2018-04-27T20:52:44.272Z,70.60
2018-04-27T20:55:16.705Z,71.00
2018-04-27T20:57:44.450Z,71.40
2018-04-27T21:00:12.626Z,71.70
2018-04-27T21:02:42.988Z,72.40
2018-04-27T21:05:10.487Z,73.00
2018-04-27T21:07:38.828Z,73.00
2018-04-27T21:10:06.592Z,73.30
2018-04-27T21:12:34.258Z,73.50
2018-04-27T21:15:02.514Z,73.40
2018-04-27T21:17:30.116Z,73.60
2018-04-27T21:19:58.361Z,74.00
2018-04-27T21:22:25.809Z,74.10
2018-04-27T21:24:53.294Z,73.90
2018-04-27T21:27:20.769Z,73.70
2018-04-27T21:29:48.217Z,74.20
2018-04-27T21:32:15.795Z,74.20
2018-04-27T21:34:43.658Z,74.30
2018-04-27T21:37:11.157Z,74.30
2018-04-27T21:39:39.526Z,74.50
2018-04-27T21:45:13.129Z,75.10
2018-04-27T21:47:44.288Z,74.80
2018-04-27T21:50:11.992Z,74.70
2018-04-27T21:52:47.809Z,75.90
2018-04-27T21:55:15.396Z,75.60
2018-04-27T21:57:55.752Z,75.50
2018-04-27T22:00:23.292Z,76.10
2018-04-27T22:03:15.566Z,76.50
2018-04-27T22:05:52.932Z,76.60
2018-04-27T22:08:21.274Z,76.70
2018-04-27T22:10:48.725Z,77.20
2018-04-27T22:13:17.127Z,76.70
2018-04-27T22:15:44.812Z,76.80
2018-04-27T22:18:12.362Z,78.30
2018-04-27T22:20:45.893Z,78.90
2018-04-27T22:23:14.130Z,79.20
2018-04-27T22:25:42.687Z,79.10
2018-04-27T22:28:11.081Z,78.90
2018-04-27T22:30:40.932Z,80.60
2018-04-27T22:33:20.068Z,80.60
2018-04-27T22:35:54.675Z,81.20
2018-04-27T22:41:25.965Z,81.00
2018-04-27T22:43:56.152Z,81.00
2018-04-27T22:46:24.382Z,80.90
2018-04-27T22:48:58.716Z,80.90
2018-04-27T22:51:26.956Z,80.90
2018-04-27T22:53:56.093Z,80.90
2018-04-27T22:59:22.766Z,82.70
2018-04-27T23:01:50.832Z,82.70
2018-04-27T23:04:18.293Z,82.50
2018-04-27T23:06:46.740Z,83.00
2018-04-27T23:09:14.271Z,82.90
2018-04-27T23:11:42.555Z,83.50
2018-04-27T23:14:15.931Z,83.20
2018-04-27T23:16:47.912Z,83.50
2018-04-27T23:19:15.637Z,83.50
2018-04-27T23:21:57.976Z,83.40
2018-04-27T23:24:25.456Z,83.40
2018-04-27T23:27:09.778Z,83.30
2018-04-27T23:29:37.538Z,83.40
2018-04-27T23:32:05.340Z,83.60
2018-04-27T23:34:33.912Z,84.40
2018-04-27T23:37:01.449Z,83.60
2018-04-27T23:39:28.913Z,83.90
2018-04-27T23:41:56.355Z,83.80
2018-04-27T23:44:23.872Z,83.80
2018-04-27T23:46:51.312Z,83.90
2018-04-27T23:49:21.773Z,84.10
2018-04-27T23:51:50.132Z,84.20
2018-04-27T23:54:17.801Z,84.10
2018-04-27T23:56:46.379Z,84.20
2018-04-27T23:59:27.313Z,84.10
